sensor_id;sensor_type;location;lat;lon;timestamp;temperature;humidity
11079;DHT22;5592;49.234;7.268;2024-02-14T00:02:17;5.20;99.90
11079;DHT22;5592;49.234;7.268;2024-02-14T00:04:42;5.20;99.90
11079;DHT22;5592;49.234;7.268;2024-02-14T00:07:08;5.30;99.90
11079;DHT22;5592;49.234;7.268;2024-02-14T00:09:34;5.30;99.90
11079;DHT22;5592;49.234;7.268;2024-02-14T00:12:00;5.30;99.90
11079;DHT22;5592;49.234;7.268;2024-02-14T00:14:25;5.30;99.90
11079;DHT22;5592;49.234;7.268;2024-02-14T00:16:51;5.20;99.90
11079;DHT22;5592;49.234;7.268;2024-02-14T00:19:16;5.30;99.90
11079;DHT22;5592;49.234;7.268;2024-02-14T00:21:42;5.20;99.90
11079;DHT22;5592;49.234;7.268;2024-02-14T00:24:08;5.20;99.90
11079;DHT22;5592;49.234;7.268;2024-02-14T00:26:33;5.10;99.90
11079;DHT22;5592;49.234;7.268;2024-02-14T00:28:59;5.10;99.90
11079;DHT22;5592;49.234;7.268;2024-02-14T00:31:25;5.10;99.90
11079;DHT22;5592;49.234;7.268;2024-02-14T00:33:50;5.00;99.90
11079;DHT22;5592;49.234;7.268;2024-02-14T00:36:16;4.90;99.90
11079;DHT22;5592;49.234;7.268;2024-02-14T00:38:42;4.80;99.90
11079;DHT22;5592;49.234;7.268;2024-02-14T00:41:07;4.70;99.90
11079;DHT22;5592;49.234;7.268;2024-02-14T00:43:33;4.60;99.90
11079;DHT22;5592;49.234;7.268;2024-02-14T00:45:58;4.40;99.90
11079;DHT22;5592;49.234;7.268;2024-02-14T00:48:24;4.30;99.90
11079;DHT22;5592;49.234;7.268;2024-02-14T00:50:49;4.30;99.90
11079;DHT22;5592;49.234;7.268;2024-02-14T00:53:15;4.30;99.90
11079;DHT22;5592;49.234;7.268;2024-02-14T00:55:40;4.30;99.90
11079;DHT22;5592;49.234;7.268;2024-02-14T00:58:06;4.50;99.90
11079;DHT22;5592;49.234;7.268;2024-02-14T01:00:33;4.60;99.90
11079;DHT22;5592;49.234;7.268;2024-02-14T01:02:59;4.70;99.90
11079;DHT22;5592;49.234;7.268;2024-02-14T01:05:24;4.90;99.90
11079;DHT22;5592;49.234;7.268;2024-02-14T01:07:50;5.00;99.90
11079;DHT22;5592;49.234;7.268;2024-02-14T01:10:16;5.20;99.90
11079;DHT22;5592;49.234;7.268;2024-02-14T01:12:41;5.30;99.90
11079;DHT22;5592;49.234;7.268;2024-02-14T01:15:07;5.40;99.90
11079;DHT22;5592;49.234;7.268;2024-02-14T01:17:33;5.40;99.90
11079;DHT22;5592;49.234;7.268;2024-02-14T01:20:01;5.60;99.90
11079;DHT22;5592;49.234;7.268;2024-02-14T01:22:27;5.60;99.90
11079;DHT22;5592;49.234;7.268;2024-02-14T01:24:52;5.70;99.90
11079;DHT22;5592;49.234;7.268;2024-02-14T01:27:19;5.90;99.90
11079;DHT22;5592;49.234;7.268;2024-02-14T01:29:44;5.90;99.90
11079;DHT22;5592;49.234;7.268;2024-02-14T01:32:09;6.00;99.90
11079;DHT22;5592;49.234;7.268;2024-02-14T01:34:35;6.00;99.90
11079;DHT22;5592;49.234;7.268;2024-02-14T01:37:01;6.10;99.90
11079;DHT22;5592;49.234;7.268;2024-02-14T01:39:26;6.10;99.90
11079;DHT22;5592;49.234;7.268;2024-02-14T01:41:52;6.10;99.90
11079;DHT22;5592;49.234;7.268;2024-02-14T01:44:18;6.20;99.90
11079;DHT22;5592;49.234;7.268;2024-02-14T01:46:44;6.20;99.90
11079;DHT22;5592;49.234;7.268;2024-02-14T01:49:11;6.20;99.90
11079;DHT22;5592;49.234;7.268;2024-02-14T01:51:37;6.20;99.90
11079;DHT22;5592;49.234;7.268;2024-02-14T01:54:04;6.30;99.90
11079;DHT22;5592;49.234;7.268;2024-02-14T01:56:31;6.30;99.90
11079;DHT22;5592;49.234;7.268;2024-02-14T01:58:58;6.30;99.90
11079;DHT22;5592;49.234;7.268;2024-02-14T02:01:24;6.30;99.90
11079;DHT22;5592;49.234;7.268;2024-02-14T02:03:49;6.40;99.90
11079;DHT22;5592;49.234;7.268;2024-02-14T02:06:15;6.40;99.90
11079;DHT22;5592;49.234;7.268;2024-02-14T02:08:43;6.40;99.90
11079;DHT22;5592;49.234;7.268;2024-02-14T02:11:09;6.40;99.90
11079;DHT22;5592;49.234;7.268;2024-02-14T02:13:35;6.40;99.90
11079;DHT22;5592;49.234;7.268;2024-02-14T02:16:02;6.50;99.90
11079;DHT22;5592;49.234;7.268;2024-02-14T02:18:30;6.60;99.90
11079;DHT22;5592;49.234;7.268;2024-02-14T02:20:56;6.60;99.90
11079;DHT22;5592;49.234;7.268;2024-02-14T02:23:22;6.60;99.90
11079;DHT22;5592;49.234;7.268;2024-02-14T02:25:48;6.70;99.90
11079;DHT22;5592;49.234;7.268;2024-02-14T02:28:13;6.70;99.90
11079;DHT22;5592;49.234;7.268;2024-02-14T02:30:40;6.80;99.90
11079;DHT22;5592;49.234;7.268;2024-02-14T02:33:05;6.80;99.90
11079;DHT22;5592;49.234;7.268;2024-02-14T02:35:33;6.90;99.90
11079;DHT22;5592;49.234;7.268;2024-02-14T02:37:59;6.90;99.90
11079;DHT22;5592;49.234;7.268;2024-02-14T02:40:25;6.90;99.90
11079;DHT22;5592;49.234;7.268;2024-02-14T02:42:52;6.90;99.90
11079;DHT22;5592;49.234;7.268;2024-02-14T02:45:18;7.00;99.90
11079;DHT22;5592;49.234;7.268;2024-02-14T02:47:44;7.00;99.90
11079;DHT22;5592;49.234;7.268;2024-02-14T02:50:09;7.00;99.90
11079;DHT22;5592;49.234;7.268;2024-02-14T02:52:35;7.00;99.90
11079;DHT22;5592;49.234;7.268;2024-02-14T02:55:01;7.10;99.90
11079;DHT22;5592;49.234;7.268;2024-02-14T02:57:28;7.10;99.90
11079;DHT22;5592;49.234;7.268;2024-02-14T02:59:53;7.20;99.90
11079;DHT22;5592;49.234;7.268;2024-02-14T03:02:21;7.20;99.90
11079;DHT22;5592;49.234;7.268;2024-02-14T03:04:48;7.20;99.90
11079;DHT22;5592;49.234;7.268;2024-02-14T03:07:13;7.20;99.90
11079;DHT22;5592;49.234;7.268;2024-02-14T03:09:39;7.30;99.90
11079;DHT22;5592;49.234;7.268;2024-02-14T03:12:05;7.30;99.90
11079;DHT22;5592;49.234;7.268;2024-02-14T03:14:31;7.40;99.90
11079;DHT22;5592;49.234;7.268;2024-02-14T03:16:59;7.40;99.90
11079;DHT22;5592;49.234;7.268;2024-02-14T03:19:25;7.40;99.90
11079;DHT22;5592;49.234;7.268;2024-02-14T03:21:52;7.40;99.90
11079;DHT22;5592;49.234;7.268;2024-02-14T03:24:18;7.40;99.90
11079;DHT22;5592;49.234;7.268;2024-02-14T03:26:43;7.50;99.90
11079;DHT22;5592;49.234;7.268;2024-02-14T03:29:09;7.50;99.90
11079;DHT22;5592;49.234;7.268;2024-02-14T03:31:35;7.50;99.90
11079;DHT22;5592;49.234;7.268;2024-02-14T03:34:01;7.50;99.90
11079;DHT22;5592;49.234;7.268;2024-02-14T03:36:27;7.50;99.90
11079;DHT22;5592;49.234;7.268;2024-02-14T03:38:54;7.50;99.90
11079;DHT22;5592;49.234;7.268;2024-02-14T03:41:19;7.50;99.90
11079;DHT22;5592;49.234;7.268;2024-02-14T03:43:45;7.50;99.90
11079;DHT22;5592;49.234;7.268;2024-02-14T03:46:10;7.50;99.90
11079;DHT22;5592;49.234;7.268;2024-02-14T03:48:38;7.60;99.90
11079;DHT22;5592;49.234;7.268;2024-02-14T03:51:04;7.60;99.90
11079;DHT22;5592;49.234;7.268;2024-02-14T03:53:29;7.60;99.90
11079;DHT22;5592;49.234;7.268;2024-02-14T03:55:56;7.70;99.90
11079;DHT22;5592;49.234;7.268;2024-02-14T03:58:21;7.60;99.90
11079;DHT22;5592;49.234;7.268;2024-02-14T04:00:52;7.60;99.90
11079;DHT22;5592;49.234;7.268;2024-02-14T04:03:17;7.60;99.90
11079;DHT22;5592;49.234;7.268;2024-02-14T04:05:43;7.60;99.90
11079;DHT22;5592;49.234;7.268;2024-02-14T04:08:10;7.60;99.90
11079;DHT22;5592;49.234;7.268;2024-02-14T04:10:39;7.60;99.90
11079;DHT22;5592;49.234;7.268;2024-02-14T04:13:04;7.60;99.90
11079;DHT22;5592;49.234;7.268;2024-02-14T04:15:31;7.60;99.90
11079;DHT22;5592;49.234;7.268;2024-02-14T04:17:56;7.50;99.90
11079;DHT22;5592;49.234;7.268;2024-02-14T04:20:23;7.50;99.90
11079;DHT22;5592;49.234;7.268;2024-02-14T04:22:49;7.50;99.90
11079;DHT22;5592;49.234;7.268;2024-02-14T04:25:14;7.50;99.90
11079;DHT22;5592;49.234;7.268;2024-02-14T04:27:40;7.40;99.90
11079;DHT22;5592;49.234;7.268;2024-02-14T04:30:06;7.40;99.90
11079;DHT22;5592;49.234;7.268;2024-02-14T04:32:31;7.40;99.90
11079;DHT22;5592;49.234;7.268;2024-02-14T04:34:58;7.40;99.90
11079;DHT22;5592;49.234;7.268;2024-02-14T04:37:24;7.40;99.90
11079;DHT22;5592;49.234;7.268;2024-02-14T04:39:50;7.30;99.90
11079;DHT22;5592;49.234;7.268;2024-02-14T04:42:15;7.20;99.90
11079;DHT22;5592;49.234;7.268;2024-02-14T04:44:41;7.20;99.90
11079;DHT22;5592;49.234;7.268;2024-02-14T04:47:06;7.10;99.90
11079;DHT22;5592;49.234;7.268;2024-02-14T04:49:35;7.10;99.90
11079;DHT22;5592;49.234;7.268;2024-02-14T04:52:00;7.00;99.90
11079;DHT22;5592;49.234;7.268;2024-02-14T04:54:26;7.00;99.90
11079;DHT22;5592;49.234;7.268;2024-02-14T04:56:51;6.90;99.90
11079;DHT22;5592;49.234;7.268;2024-02-14T04:59:17;6.90;99.90
11079;DHT22;5592;49.234;7.268;2024-02-14T05:01:42;6.90;99.90
11079;DHT22;5592;49.234;7.268;2024-02-14T05:04:09;6.80;99.90
11079;DHT22;5592;49.234;7.268;2024-02-14T05:06:35;6.80;99.90
11079;DHT22;5592;49.234;7.268;2024-02-14T05:09:01;6.80;99.90
11079;DHT22;5592;49.234;7.268;2024-02-14T05:11:30;6.80;99.90
11079;DHT22;5592;49.234;7.268;2024-02-14T05:13:56;6.80;99.90
11079;DHT22;5592;49.234;7.268;2024-02-14T05:16:21;6.80;99.90
11079;DHT22;5592;49.234;7.268;2024-02-14T05:18:47;6.80;99.90
11079;DHT22;5592;49.234;7.268;2024-02-14T05:21:13;6.80;99.90
11079;DHT22;5592;49.234;7.268;2024-02-14T05:23:42;6.80;99.90
11079;DHT22;5592;49.234;7.268;2024-02-14T05:26:07;6.80;99.90
11079;DHT22;5592;49.234;7.268;2024-02-14T05:28:33;6.80;99.90
11079;DHT22;5592;49.234;7.268;2024-02-14T05:31:02;6.80;99.90
11079;DHT22;5592;49.234;7.268;2024-02-14T05:33:28;6.80;99.90
11079;DHT22;5592;49.234;7.268;2024-02-14T05:35:54;6.80;99.90
11079;DHT22;5592;49.234;7.268;2024-02-14T05:38:19;6.80;99.90
11079;DHT22;5592;49.234;7.268;2024-02-14T05:40:48;6.90;99.90
11079;DHT22;5592;49.234;7.268;2024-02-14T05:43:15;6.90;99.90
11079;DHT22;5592;49.234;7.268;2024-02-14T05:45:41;6.80;99.90
11079;DHT22;5592;49.234;7.268;2024-02-14T05:48:07;6.80;99.90
11079;DHT22;5592;49.234;7.268;2024-02-14T05:50:33;6.80;99.90
11079;DHT22;5592;49.234;7.268;2024-02-14T05:52:58;6.90;99.90
11079;DHT22;5592;49.234;7.268;2024-02-14T05:55:24;6.90;99.90
11079;DHT22;5592;49.234;7.268;2024-02-14T05:57:51;6.90;99.90
11079;DHT22;5592;49.234;7.268;2024-02-14T06:00:20;6.80;99.90
11079;DHT22;5592;49.234;7.268;2024-02-14T06:02:48;6.80;99.90
11079;DHT22;5592;49.234;7.268;2024-02-14T06:05:14;6.80;99.90
11079;DHT22;5592;49.234;7.268;2024-02-14T06:07:40;6.80;99.90
11079;DHT22;5592;49.234;7.268;2024-02-14T06:10:06;6.70;99.90
11079;DHT22;5592;49.234;7.268;2024-02-14T06:12:33;6.70;99.90
11079;DHT22;5592;49.234;7.268;2024-02-14T06:14:58;6.70;99.90
11079;DHT22;5592;49.234;7.268;2024-02-14T06:17:24;6.80;99.90
11079;DHT22;5592;49.234;7.268;2024-02-14T06:19:51;6.90;99.90
11079;DHT22;5592;49.234;7.268;2024-02-14T06:22:17;6.80;99.90
11079;DHT22;5592;49.234;7.268;2024-02-14T06:24:42;6.90;99.90
11079;DHT22;5592;49.234;7.268;2024-02-14T06:27:08;6.90;99.90
11079;DHT22;5592;49.234;7.268;2024-02-14T06:29:33;6.80;99.90
11079;DHT22;5592;49.234;7.268;2024-02-14T06:31:59;6.80;99.90
11079;DHT22;5592;49.234;7.268;2024-02-14T06:34:24;6.80;99.90
11079;DHT22;5592;49.234;7.268;2024-02-14T06:36:51;6.80;99.90
11079;DHT22;5592;49.234;7.268;2024-02-14T06:39:17;6.90;99.90
11079;DHT22;5592;49.234;7.268;2024-02-14T06:41:42;6.90;99.90
11079;DHT22;5592;49.234;7.268;2024-02-14T06:44:10;6.90;99.90
11079;DHT22;5592;49.234;7.268;2024-02-14T06:46:36;6.90;99.90
11079;DHT22;5592;49.234;7.268;2024-02-14T06:49:03;7.00;99.90
11079;DHT22;5592;49.234;7.268;2024-02-14T06:51:29;7.00;99.90
11079;DHT22;5592;49.234;7.268;2024-02-14T06:53:56;7.00;99.90
11079;DHT22;5592;49.234;7.268;2024-02-14T06:56:21;6.90;99.90
11079;DHT22;5592;49.234;7.268;2024-02-14T06:58:47;6.90;99.90
11079;DHT22;5592;49.234;7.268;2024-02-14T07:01:20;6.90;99.90
11079;DHT22;5592;49.234;7.268;2024-02-14T07:03:49;7.00;99.90
11079;DHT22;5592;49.234;7.268;2024-02-14T07:06:16;7.00;99.90
11079;DHT22;5592;49.234;7.268;2024-02-14T07:08:42;7.00;99.90
11079;DHT22;5592;49.234;7.268;2024-02-14T07:11:08;7.10;99.90
11079;DHT22;5592;49.234;7.268;2024-02-14T07:13:33;7.10;99.90
11079;DHT22;5592;49.234;7.268;2024-02-14T07:15:59;7.20;99.90
11079;DHT22;5592;49.234;7.268;2024-02-14T07:18:25;7.20;99.90
11079;DHT22;5592;49.234;7.268;2024-02-14T07:20:51;7.20;99.90
11079;DHT22;5592;49.234;7.268;2024-02-14T07:23:18;7.20;99.90
11079;DHT22;5592;49.234;7.268;2024-02-14T07:25:44;7.30;99.90
11079;DHT22;5592;49.234;7.268;2024-02-14T07:28:10;7.30;99.90
11079;DHT22;5592;49.234;7.268;2024-02-14T07:30:35;7.30;99.90
11079;DHT22;5592;49.234;7.268;2024-02-14T07:33:01;7.30;99.90
11079;DHT22;5592;49.234;7.268;2024-02-14T07:35:27;7.40;99.90
11079;DHT22;5592;49.234;7.268;2024-02-14T07:37:52;7.50;99.90
11079;DHT22;5592;49.234;7.268;2024-02-14T07:40:18;7.60;99.90
11079;DHT22;5592;49.234;7.268;2024-02-14T07:42:44;7.70;99.90
11079;DHT22;5592;49.234;7.268;2024-02-14T07:45:09;7.60;99.90
11079;DHT22;5592;49.234;7.268;2024-02-14T07:47:35;7.60;99.90
11079;DHT22;5592;49.234;7.268;2024-02-14T07:50:01;7.70;99.90
11079;DHT22;5592;49.234;7.268;2024-02-14T07:52:27;7.60;99.90
11079;DHT22;5592;49.234;7.268;2024-02-14T07:54:53;7.60;99.90
11079;DHT22;5592;49.234;7.268;2024-02-14T07:57:20;7.60;99.90
11079;DHT22;5592;49.234;7.268;2024-02-14T07:59:45;7.60;99.90
11079;DHT22;5592;49.234;7.268;2024-02-14T08:02:11;7.60;99.90
11079;DHT22;5592;49.234;7.268;2024-02-14T08:04:36;7.60;99.90
11079;DHT22;5592;49.234;7.268;2024-02-14T08:07:02;7.70;99.90
11079;DHT22;5592;49.234;7.268;2024-02-14T08:09:29;7.80;99.90
11079;DHT22;5592;49.234;7.268;2024-02-14T08:11:55;7.70;99.90
11079;DHT22;5592;49.234;7.268;2024-02-14T08:14:20;7.70;99.90
11079;DHT22;5592;49.234;7.268;2024-02-14T08:16:46;7.70;99.90
11079;DHT22;5592;49.234;7.268;2024-02-14T08:19:11;7.70;99.90
11079;DHT22;5592;49.234;7.268;2024-02-14T08:21:37;7.70;99.90
11079;DHT22;5592;49.234;7.268;2024-02-14T08:24:03;7.80;99.90
11079;DHT22;5592;49.234;7.268;2024-02-14T08:26:28;7.80;99.90
11079;DHT22;5592;49.234;7.268;2024-02-14T08:28:54;7.80;99.90
11079;DHT22;5592;49.234;7.268;2024-02-14T08:31:20;7.80;99.90
11079;DHT22;5592;49.234;7.268;2024-02-14T08:33:45;7.80;99.90
11079;DHT22;5592;49.234;7.268;2024-02-14T08:36:11;7.90;99.90
11079;DHT22;5592;49.234;7.268;2024-02-14T08:38:36;8.00;99.90
11079;DHT22;5592;49.234;7.268;2024-02-14T08:41:03;8.10;99.90
11079;DHT22;5592;49.234;7.268;2024-02-14T08:43:29;8.10;99.90
11079;DHT22;5592;49.234;7.268;2024-02-14T08:45:55;8.30;99.90
11079;DHT22;5592;49.234;7.268;2024-02-14T08:48:21;8.20;99.90
11079;DHT22;5592;49.234;7.268;2024-02-14T08:50:49;8.20;99.90
11079;DHT22;5592;49.234;7.268;2024-02-14T08:53:15;8.20;99.90
11079;DHT22;5592;49.234;7.268;2024-02-14T08:55:41;8.10;99.90
11079;DHT22;5592;49.234;7.268;2024-02-14T08:58:07;8.20;99.90
11079;DHT22;5592;49.234;7.268;2024-02-14T09:00:37;8.20;99.90
11079;DHT22;5592;49.234;7.268;2024-02-14T09:03:04;8.30;99.90
11079;DHT22;5592;49.234;7.268;2024-02-14T09:05:30;8.40;99.90
11079;DHT22;5592;49.234;7.268;2024-02-14T09:07:57;8.60;99.90
11079;DHT22;5592;49.234;7.268;2024-02-14T09:10:23;8.60;99.90
11079;DHT22;5592;49.234;7.268;2024-02-14T09:12:48;8.80;99.90
11079;DHT22;5592;49.234;7.268;2024-02-14T09:15:14;8.80;99.90
11079;DHT22;5592;49.234;7.268;2024-02-14T09:17:40;8.80;99.90
11079;DHT22;5592;49.234;7.268;2024-02-14T09:20:08;8.70;99.90
11079;DHT22;5592;49.234;7.268;2024-02-14T09:22:37;8.80;99.90
11079;DHT22;5592;49.234;7.268;2024-02-14T09:25:03;8.80;99.90
11079;DHT22;5592;49.234;7.268;2024-02-14T09:27:34;8.90;99.90
11079;DHT22;5592;49.234;7.268;2024-02-14T09:30:01;8.80;99.90
11079;DHT22;5592;49.234;7.268;2024-02-14T09:32:29;8.80;99.90
11079;DHT22;5592;49.234;7.268;2024-02-14T09:34:55;8.80;99.90
11079;DHT22;5592;49.234;7.268;2024-02-14T09:37:20;8.70;99.90
11079;DHT22;5592;49.234;7.268;2024-02-14T09:39:46;8.70;99.90
11079;DHT22;5592;49.234;7.268;2024-02-14T09:42:13;8.70;99.90
11079;DHT22;5592;49.234;7.268;2024-02-14T09:44:41;8.80;99.90
11079;DHT22;5592;49.234;7.268;2024-02-14T09:47:09;8.70;99.90
11079;DHT22;5592;49.234;7.268;2024-02-14T09:49:35;8.70;99.90
11079;DHT22;5592;49.234;7.268;2024-02-14T09:52:05;8.80;99.90
11079;DHT22;5592;49.234;7.268;2024-02-14T09:54:31;8.80;99.90
11079;DHT22;5592;49.234;7.268;2024-02-14T09:57:00;8.80;99.90
11079;DHT22;5592;49.234;7.268;2024-02-14T09:59:28;8.80;99.90
11079;DHT22;5592;49.234;7.268;2024-02-14T10:01:54;9.00;99.90
11079;DHT22;5592;49.234;7.268;2024-02-14T10:04:20;9.10;99.90
11079;DHT22;5592;49.234;7.268;2024-02-14T10:06:47;9.10;99.90
11079;DHT22;5592;49.234;7.268;2024-02-14T10:09:19;9.20;99.90
11079;DHT22;5592;49.234;7.268;2024-02-14T10:11:44;9.30;99.90
11079;DHT22;5592;49.234;7.268;2024-02-14T10:14:11;9.30;99.90
11079;DHT22;5592;49.234;7.268;2024-02-14T10:16:38;9.50;99.90
11079;DHT22;5592;49.234;7.268;2024-02-14T10:19:04;9.50;99.90
11079;DHT22;5592;49.234;7.268;2024-02-14T10:21:30;9.50;99.90
11079;DHT22;5592;49.234;7.268;2024-02-14T10:24:01;9.40;99.90
11079;DHT22;5592;49.234;7.268;2024-02-14T10:26:30;9.60;99.90
11079;DHT22;5592;49.234;7.268;2024-02-14T10:28:56;9.50;99.90
11079;DHT22;5592;49.234;7.268;2024-02-14T10:31:25;9.60;99.90
11079;DHT22;5592;49.234;7.268;2024-02-14T10:33:51;9.80;99.90
11079;DHT22;5592;49.234;7.268;2024-02-14T10:36:17;9.80;99.90
11079;DHT22;5592;49.234;7.268;2024-02-14T10:38:46;9.90;99.90
11079;DHT22;5592;49.234;7.268;2024-02-14T10:41:14;10.00;99.90
11079;DHT22;5592;49.234;7.268;2024-02-14T10:43:43;10.00;99.90
11079;DHT22;5592;49.234;7.268;2024-02-14T10:46:19;10.10;99.90
11079;DHT22;5592;49.234;7.268;2024-02-14T10:48:47;10.10;99.90
11079;DHT22;5592;49.234;7.268;2024-02-14T10:51:15;10.30;99.90
11079;DHT22;5592;49.234;7.268;2024-02-14T10:53:44;10.40;99.90
11079;DHT22;5592;49.234;7.268;2024-02-14T10:56:15;10.40;99.90
11079;DHT22;5592;49.234;7.268;2024-02-14T10:58:44;10.60;99.90
11079;DHT22;5592;49.234;7.268;2024-02-14T11:01:14;10.60;99.90
11079;DHT22;5592;49.234;7.268;2024-02-14T11:03:42;10.50;99.90
11079;DHT22;5592;49.234;7.268;2024-02-14T11:06:08;10.60;99.90
11079;DHT22;5592;49.234;7.268;2024-02-14T11:08:35;10.60;99.90
11079;DHT22;5592;49.234;7.268;2024-02-14T11:11:02;10.50;99.90
11079;DHT22;5592;49.234;7.268;2024-02-14T11:13:30;10.50;99.90
11079;DHT22;5592;49.234;7.268;2024-02-14T11:16:00;10.60;99.90
11079;DHT22;5592;49.234;7.268;2024-02-14T11:18:29;10.60;99.90
11079;DHT22;5592;49.234;7.268;2024-02-14T11:20:58;10.60;99.90
11079;DHT22;5592;49.234;7.268;2024-02-14T11:23:24;10.60;99.90
11079;DHT22;5592;49.234;7.268;2024-02-14T11:26:03;10.60;99.90
11079;DHT22;5592;49.234;7.268;2024-02-14T11:28:29;10.70;99.90
11079;DHT22;5592;49.234;7.268;2024-02-14T11:31:00;10.80;99.90
11079;DHT22;5592;49.234;7.268;2024-02-14T11:33:26;11.00;99.90
11079;DHT22;5592;49.234;7.268;2024-02-14T11:35:53;11.00;99.90
11079;DHT22;5592;49.234;7.268;2024-02-14T11:38:21;11.10;99.90
11079;DHT22;5592;49.234;7.268;2024-02-14T11:40:47;11.10;99.90
11079;DHT22;5592;49.234;7.268;2024-02-14T11:43:15;11.00;99.90
11079;DHT22;5592;49.234;7.268;2024-02-14T11:45:42;11.00;99.90
11079;DHT22;5592;49.234;7.268;2024-02-14T11:48:10;10.90;99.90
11079;DHT22;5592;49.234;7.268;2024-02-14T11:50:38;10.90;99.90
11079;DHT22;5592;49.234;7.268;2024-02-14T11:53:04;11.00;99.90
11079;DHT22;5592;49.234;7.268;2024-02-14T11:55:31;11.00;99.90
11079;DHT22;5592;49.234;7.268;2024-02-14T11:57:57;11.00;99.90
11079;DHT22;5592;49.234;7.268;2024-02-14T12:00:23;11.10;99.90
11079;DHT22;5592;49.234;7.268;2024-02-14T12:02:50;11.10;99.90
11079;DHT22;5592;49.234;7.268;2024-02-14T12:05:17;11.00;99.90
11079;DHT22;5592;49.234;7.268;2024-02-14T12:07:43;11.00;99.90
11079;DHT22;5592;49.234;7.268;2024-02-14T12:10:09;10.90;99.90
11079;DHT22;5592;49.234;7.268;2024-02-14T12:12:35;11.00;99.90
11079;DHT22;5592;49.234;7.268;2024-02-14T12:15:02;11.00;99.90
11079;DHT22;5592;49.234;7.268;2024-02-14T12:17:27;10.80;99.90
11079;DHT22;5592;49.234;7.268;2024-02-14T12:20:07;10.80;99.90
11079;DHT22;5592;49.234;7.268;2024-02-14T12:22:33;10.80;99.90
11079;DHT22;5592;49.234;7.268;2024-02-14T12:24:59;10.80;99.90
11079;DHT22;5592;49.234;7.268;2024-02-14T12:27:24;10.50;99.90
11079;DHT22;5592;49.234;7.268;2024-02-14T12:29:51;10.40;99.90
11079;DHT22;5592;49.234;7.268;2024-02-14T12:32:17;10.40;99.90
11079;DHT22;5592;49.234;7.268;2024-02-14T12:34:44;10.40;99.90
11079;DHT22;5592;49.234;7.268;2024-02-14T12:37:10;10.40;99.90
11079;DHT22;5592;49.234;7.268;2024-02-14T12:39:37;10.40;99.90
11079;DHT22;5592;49.234;7.268;2024-02-14T12:42:03;10.30;99.90
11079;DHT22;5592;49.234;7.268;2024-02-14T12:44:29;10.50;99.90
11079;DHT22;5592;49.234;7.268;2024-02-14T12:46:54;10.60;99.90
11079;DHT22;5592;49.234;7.268;2024-02-14T12:49:20;10.80;99.90
11079;DHT22;5592;49.234;7.268;2024-02-14T12:51:46;10.80;99.90
11079;DHT22;5592;49.234;7.268;2024-02-14T12:54:12;10.80;99.90
11079;DHT22;5592;49.234;7.268;2024-02-14T12:56:40;10.80;99.90
11079;DHT22;5592;49.234;7.268;2024-02-14T12:59:08;10.70;99.90
11079;DHT22;5592;49.234;7.268;2024-02-14T13:01:40;10.70;99.90
11079;DHT22;5592;49.234;7.268;2024-02-14T13:04:05;10.60;99.90
11079;DHT22;5592;49.234;7.268;2024-02-14T13:06:32;10.70;99.90
11079;DHT22;5592;49.234;7.268;2024-02-14T13:09:01;10.60;99.90
11079;DHT22;5592;49.234;7.268;2024-02-14T13:11:27;10.60;99.90
11079;DHT22;5592;49.234;7.268;2024-02-14T13:13:53;10.60;99.90
11079;DHT22;5592;49.234;7.268;2024-02-14T13:16:19;10.60;99.90
11079;DHT22;5592;49.234;7.268;2024-02-14T13:18:45;10.60;99.90
11079;DHT22;5592;49.234;7.268;2024-02-14T13:21:10;10.60;99.90
11079;DHT22;5592;49.234;7.268;2024-02-14T13:23:36;10.70;99.90
11079;DHT22;5592;49.234;7.268;2024-02-14T13:26:01;10.70;99.90
11079;DHT22;5592;49.234;7.268;2024-02-14T13:28:29;10.70;99.90
11079;DHT22;5592;49.234;7.268;2024-02-14T13:30:54;10.70;99.90
11079;DHT22;5592;49.234;7.268;2024-02-14T13:33:20;10.70;99.90
11079;DHT22;5592;49.234;7.268;2024-02-14T13:35:45;10.80;99.90
11079;DHT22;5592;49.234;7.268;2024-02-14T13:38:11;10.70;99.90
11079;DHT22;5592;49.234;7.268;2024-02-14T13:40:38;10.70;99.90
11079;DHT22;5592;49.234;7.268;2024-02-14T13:43:05;10.70;99.90
11079;DHT22;5592;49.234;7.268;2024-02-14T13:45:41;10.60;99.90
11079;DHT22;5592;49.234;7.268;2024-02-14T13:48:08;10.70;99.90
11079;DHT22;5592;49.234;7.268;2024-02-14T13:50:35;10.80;99.90
11079;DHT22;5592;49.234;7.268;2024-02-14T13:53:00;10.80;99.90
11079;DHT22;5592;49.234;7.268;2024-02-14T13:55:26;10.80;99.90
11079;DHT22;5592;49.234;7.268;2024-02-14T13:57:51;10.80;99.90
11079;DHT22;5592;49.234;7.268;2024-02-14T14:00:17;10.80;99.90
11079;DHT22;5592;49.234;7.268;2024-02-14T14:02:43;10.80;99.90
11079;DHT22;5592;49.234;7.268;2024-02-14T14:05:09;10.80;99.90
11079;DHT22;5592;49.234;7.268;2024-02-14T14:07:36;10.70;99.90
11079;DHT22;5592;49.234;7.268;2024-02-14T14:10:05;10.80;99.90
11079;DHT22;5592;49.234;7.268;2024-02-14T14:12:31;10.80;99.90
11079;DHT22;5592;49.234;7.268;2024-02-14T14:14:57;10.80;99.90
11079;DHT22;5592;49.234;7.268;2024-02-14T14:17:23;10.90;99.90
11079;DHT22;5592;49.234;7.268;2024-02-14T14:19:48;10.90;99.90
11079;DHT22;5592;49.234;7.268;2024-02-14T14:22:14;10.80;99.90
11079;DHT22;5592;49.234;7.268;2024-02-14T14:24:43;10.80;99.90
11079;DHT22;5592;49.234;7.268;2024-02-14T14:27:08;10.80;99.90
11079;DHT22;5592;49.234;7.268;2024-02-14T14:29:42;10.80;99.90
11079;DHT22;5592;49.234;7.268;2024-02-14T14:32:08;10.80;99.90
11079;DHT22;5592;49.234;7.268;2024-02-14T14:34:34;10.80;99.90
11079;DHT22;5592;49.234;7.268;2024-02-14T14:36:59;10.80;99.90
11079;DHT22;5592;49.234;7.268;2024-02-14T14:39:25;10.90;99.90
11079;DHT22;5592;49.234;7.268;2024-02-14T14:41:51;10.80;99.90
11079;DHT22;5592;49.234;7.268;2024-02-14T14:44:18;11.00;99.90
11079;DHT22;5592;49.234;7.268;2024-02-14T14:46:44;10.90;99.90
11079;DHT22;5592;49.234;7.268;2024-02-14T14:49:13;10.90;99.90
11079;DHT22;5592;49.234;7.268;2024-02-14T14:51:38;10.90;99.90
11079;DHT22;5592;49.234;7.268;2024-02-14T14:54:06;10.90;99.90
11079;DHT22;5592;49.234;7.268;2024-02-14T14:56:32;10.80;99.90
11079;DHT22;5592;49.234;7.268;2024-02-14T14:58:57;10.70;99.90
11079;DHT22;5592;49.234;7.268;2024-02-14T15:01:25;10.70;99.90
11079;DHT22;5592;49.234;7.268;2024-02-14T15:03:53;10.80;99.90
11079;DHT22;5592;49.234;7.268;2024-02-14T15:06:18;10.70;99.90
11079;DHT22;5592;49.234;7.268;2024-02-14T15:08:44;10.80;99.90
11079;DHT22;5592;49.234;7.268;2024-02-14T15:11:11;10.80;99.90
11079;DHT22;5592;49.234;7.268;2024-02-14T15:13:40;10.70;99.90
11079;DHT22;5592;49.234;7.268;2024-02-14T15:16:06;10.70;99.90
11079;DHT22;5592;49.234;7.268;2024-02-14T15:18:33;10.60;99.90
11079;DHT22;5592;49.234;7.268;2024-02-14T15:20:59;10.70;99.90
11079;DHT22;5592;49.234;7.268;2024-02-14T15:23:25;10.60;99.90
11079;DHT22;5592;49.234;7.268;2024-02-14T15:25:51;10.70;99.90
11079;DHT22;5592;49.234;7.268;2024-02-14T15:28:16;10.70;99.90
11079;DHT22;5592;49.234;7.268;2024-02-14T15:30:52;10.70;99.90
11079;DHT22;5592;49.234;7.268;2024-02-14T15:33:36;10.60;99.90
11079;DHT22;5592;49.234;7.268;2024-02-14T15:36:01;10.70;99.90
11079;DHT22;5592;49.234;7.268;2024-02-14T15:38:30;10.70;99.90
11079;DHT22;5592;49.234;7.268;2024-02-14T15:40:56;10.70;99.90
11079;DHT22;5592;49.234;7.268;2024-02-14T15:43:27;10.70;99.90
11079;DHT22;5592;49.234;7.268;2024-02-14T15:45:54;10.60;99.90
11079;DHT22;5592;49.234;7.268;2024-02-14T15:48:20;10.60;99.90
11079;DHT22;5592;49.234;7.268;2024-02-14T15:50:46;10.60;99.90
11079;DHT22;5592;49.234;7.268;2024-02-14T15:53:12;10.60;99.90